Nearby METAR Reports

 

EDNY - Friedrichshafen, Germany
Distance from station: ONO 32km
aktuell: 18.11.2017 23:50
geschlossene Wolkendecke
geschlossene Wolkendecke
 Wind von WSW
Wind: WSW 22 km/h
Temperatur: 4°C
gefühlte Temperatur: -1°C
Taupunkt: -1°C
Luftfeuchte: 70%
Luftdruck: 1021 hPa
Clouds: geschlossene Wolkendecke
Visibility: 10 km
Cloud details: stark bewölkt 945 m
stark bewölkt 2652 m
geschlossene Wolkendecke 4267 m
2017/11/18 22:50 EDNY 182250Z AUTO 25012KT 9999 BKN031 BKN087 OVC140 04/M01 Q1021
LSZR - Rheineck/Altenrh, Switzerland
Distance from station: OSO 37km
aktuell: 18.11.2017 23:50
geschlossene Wolkendecke
geschlossene Wolkendecke
 Wind von W
Wind: W 7 km/h
Temperatur: 4°C
gefühlte Temperatur: 2°C
Taupunkt: 1°C
Luftfeuchte: 81%
Luftdruck: 1021 hPa
Clouds: geschlossene Wolkendecke
Visibility: 10 km
Cloud details: teilweise bewölkt 1006 m
geschlossene Wolkendecke 4572 m
2017/11/18 22:50 LSZR 182250Z AUTO 26004KT 9999 SCT033 OVC150 04/01 Q1021
LSMD - Dubendorf, Switzerland
Distance from station: SW 40km
aktuell: 18.11.2017 23:50
geschlossene Wolkendecke
geschlossene Wolkendecke
 Wind von WNW
Wind: WNW 6 km/h
Temperatur: 3°C
Taupunkt: -1°C
Luftfeuchte: 75%
Luftdruck: 1022 hPa
Clouds: geschlossene Wolkendecke
Visibility: 16 miles
Cloud details: Few Clouds 640 m
geschlossene Wolkendecke 792 m
2017/11/18 22:50 LSMD 182250Z AUTO 30003KT 9999NDV FEW021 OVC026 03/M01 Q1022 RMK
 
LSZH - Zurich-Kloten (a, Switzerland
Distance from station: WSW 44km
aktuell: 18.11.2017 23:50
stark bewölkt
stark bewölkt
 Wind von SW
Wind: SW 7 km/h
Temperatur: 3°C
gefühlte Temperatur: 1°C
Taupunkt: -2°C
Luftfeuchte: 70%
Luftdruck: 1022 hPa
Clouds: stark bewölkt
Visibility: 10 km
Cloud details: Few Clouds 701 m
stark bewölkt 823 m
2017/11/18 22:50 LSZH 182250Z 23004KT 9999 FEW023 BKN027 03/M02 Q1022 NOSIG
LOIH - Hohenems-Dornbir, Austria
Distance from station: OSO 51km
aktuell: 31.10.2016 17:00
NOT Current
geschlossene Wolkendecke
geschlossene Wolkendecke
 Wind von calm
Wind: Windstill
Temperatur: 10°C
Taupunkt: 9°C
Luftfeuchte: 94%
Luftdruck: 1026 hPa
Clouds: geschlossene Wolkendecke
Cloud details: geschlossene Wolkendecke 305 m
2016/10/31 16:00 LOIH 311600Z 00000KT 10KM OVC010ST 10/09 Q1026 RMK OVC
LSME - Emmen, Switzerland
Distance from station: SW 82km
aktuell: 18.11.2017 23:50
stark bewölkt
stark bewölkt
 Wind von calm
Wind: Windstill
Temperatur: 2°C
Taupunkt: -1°C
Luftfeuchte: 81%
Luftdruck: 1022 hPa
Clouds: stark bewölkt
Visibility: 16 miles
Cloud details: Few Clouds 823 m
stark bewölkt 3962 m
2017/11/18 22:50 LSME 182250Z AUTO 00000KT 9999NDV FEW027 BKN130 02/M01 Q1022 RMK
 
LSZC - Buochs, Switzerland
Distance from station: SW 89km
aktuell: 18.11.2017 23:50
geschlossene Wolkendecke
geschlossene Wolkendecke
 Wind von SSW
Wind: SSW 7 km/h
Temperatur: 3°C
gefühlte Temperatur: 1°C
Taupunkt: -1°C
Luftfeuchte: 75%
Luftdruck: 1022 hPa
Clouds: geschlossene Wolkendecke
Visibility: 10 km
Cloud details: geschlossene Wolkendecke 701 m
2017/11/18 22:50 LSZC 182250Z AUTO 21004KT 180V260 9999 OVC023 03/M01 Q1022
ETHL - Laupheim (ger-Ar, Germany
Distance from station: NO 92km
aktuell: 18.11.2017 23:20
stark bewölkt
stark bewölkt
 Wind von SW
Wind: SW 19 km/h
Temperatur: 2°C
gefühlte Temperatur: -2°C
Taupunkt: -2°C
Luftfeuchte: 75%
Luftdruck: 1019 hPa
Clouds: stark bewölkt
Visibility: 10 km
Cloud details: Few Clouds 427 m
stark bewölkt 853 m
stark bewölkt 3658 m
2017/11/18 22:20 ETHL 182220Z 23010KT 9999 FEW014 BKN028 BKN120 02/M02 Q1019 BLU
EDJA - Memmingen Allgau, Germany
Distance from station: ONO 95km
aktuell: 18.11.2017 21:50
NOT Current
stark bewölkt
stark bewölkt
 Wind von SW
Wind: SW 22 km/h
Temperatur: 2°C
gefühlte Temperatur: -3°C
Taupunkt: -1°C
Luftfeuchte: 81%
Luftdruck: 1020 hPa
Clouds: stark bewölkt
Visibility: 10 km
Cloud details: stark bewölkt 914 m
2017/11/18 20:50 EDJA 182050Z 23012KT 9999 BKN030 02/M01 Q1020
 
LSMA - Alpnach, Switzerland
Distance from station: SW 95km
aktuell: 18.11.2017 23:50
stark bewölkt
stark bewölkt
 Wind von varies
Wind: varies 4 km/h
Temperatur: 2°C
Taupunkt: -1°C
Luftfeuchte: 81%
Luftdruck: 1022 hPa
Clouds: stark bewölkt
Visibility: 16 miles
Cloud details: Few Clouds 792 m
stark bewölkt 4267 m
2017/11/18 22:50 LSMA 182250Z AUTO VRB02KT 9999NDV FEW026 BKN140 02/M01 Q1022 RMK